Terminal Aerodrome Forecast
Issued by NWS Austin/San Antonio, TX

Home | Current Version | Previous Version | Text Only | Print | Product List | Glossary On
Versions: 1 2 3 4 5 6 7 8 9 10 11 12 13 14 15 16
000
FTUS44 KEWX 262000 AAB
TAFAUS
TAF AMD
KAUS 262026Z 2620/2724 18015KT P6SM SCT021 SCT026 BKN045
     FM270200 18009KT P6SM OVC015
     FM270600 17005KT 5SM BR OVC010
     FM271000 VRB03KT 2SM BR OVC005
     FM271300 36014KT P6SM OVC015=

USA.gov is the U.S. government's official web portal to all federal, state and local government web resources and services.